Overview Statistics Trail Chart Weather Telemetry Raw packets
 

This is the latest recevied weather packets stored in our database for station/object EA1HTW-13. If no packets are shown the sender has not sent any weather packets the latest 10 day(s).

<< 50 51 52 53 54 55 56 >>
Time Temp. Humidity Pressure Rain* Wind** Luminosity Snow
1777315644 25.56° C 52% 1005 hPa 0 mm - - -
1777315102 25.56° C 51% 1005.2 hPa 0 mm - - -
1777314562 25.56° C 51% 1005 hPa 0 mm - - -
1777314022 25.56° C 51% 1005 hPa 0 mm - - -
1777313482 25.56° C 50% 1005 hPa 0 mm - - -
1777312942 26.11° C 50% 1005.2 hPa 0 mm - - -
1777312401 26.11° C 48% 1005.3 hPa 0 mm - - -
1777311862 26.11° C 47% 1005.2 hPa 0 mm - - -
1777311322 26.11° C 50% 1005.3 hPa 0 mm - - -
1777310781 25.56° C 50% 1005.3 hPa 0 mm - - -
1777310243 26.11° C 50% 1005.4 hPa 0 mm - - -
1777309701 26.67° C 49% 1005.4 hPa 0 mm - - -
1777309162 26.67° C 48% 1005.2 hPa 0 mm - - -
1777308621 27.78° C 41% 1005.4 hPa 0 mm - - -
1777308083 29.44° C 39% 1005.2 hPa 0 mm - - -
1777307541 31.67° C 36% 1005.3 hPa 0 mm - - -
1777307003 32.22° C 36% 1005.3 hPa 0 mm - - -
1777306463 32.22° C 35% 1005.4 hPa 0 mm - - -
1777305922 32.22° C 36% 1005.4 hPa 0 mm - - -
1777305383 32.22° C 38% 1005.4 hPa 0 mm - - -
1777304843 31.11° C 38% 1005.4 hPa 0 mm - - -
1777304301 30.56° C 38% 1005.5 hPa 0 mm - - -
1777303762 31.11° C 38% 1005.9 hPa 0 mm - - -
1777303221 31.11° C 38% 1006 hPa 0 mm - - -
1777302682 30.56° C 40% 1005.9 hPa 0 mm - - -

* Rain latest hour (hover to see other rain measurements)
** Current wind speed in m/s (hover to see current wind gust speed)